sensor_id;sensor_type;location;lat;lon;timestamp;temperature;humidity
52963;DHT22;38827;53.024;6.596;2023-05-07T00:01:56;13.30;82.80
52963;DHT22;38827;53.024;6.596;2023-05-07T00:04:22;13.30;82.90
52963;DHT22;38827;53.024;6.596;2023-05-07T00:06:48;13.20;83.00
52963;DHT22;38827;53.024;6.596;2023-05-07T00:09:13;13.20;83.10
52963;DHT22;38827;53.024;6.596;2023-05-07T00:11:39;13.20;83.30
52963;DHT22;38827;53.024;6.596;2023-05-07T00:14:05;13.20;83.20
52963;DHT22;38827;53.024;6.596;2023-05-07T00:16:31;13.20;83.30
52963;DHT22;38827;53.024;6.596;2023-05-07T00:18:57;13.20;83.50
52963;DHT22;38827;53.024;6.596;2023-05-07T00:21:23;13.10;83.50
52963;DHT22;38827;53.024;6.596;2023-05-07T00:23:52;13.10;83.50
52963;DHT22;38827;53.024;6.596;2023-05-07T00:26:18;13.10;83.60
52963;DHT22;38827;53.024;6.596;2023-05-07T00:28:43;13.10;83.70
52963;DHT22;38827;53.024;6.596;2023-05-07T00:31:09;13.10;83.80
52963;DHT22;38827;53.024;6.596;2023-05-07T00:33:35;13.00;83.80
52963;DHT22;38827;53.024;6.596;2023-05-07T00:36:01;13.00;83.80
52963;DHT22;38827;53.024;6.596;2023-05-07T00:38:27;13.00;83.90
52963;DHT22;38827;53.024;6.596;2023-05-07T00:40:53;13.00;83.90
52963;DHT22;38827;53.024;6.596;2023-05-07T00:43:18;13.00;84.00
52963;DHT22;38827;53.024;6.596;2023-05-07T00:45:44;12.90;83.90
52963;DHT22;38827;53.024;6.596;2023-05-07T00:48:11;12.90;84.00
52963;DHT22;38827;53.024;6.596;2023-05-07T00:50:37;12.90;84.00
52963;DHT22;38827;53.024;6.596;2023-05-07T00:53:02;12.90;84.10
52963;DHT22;38827;53.024;6.596;2023-05-07T00:55:29;12.90;84.10
52963;DHT22;38827;53.024;6.596;2023-05-07T00:57:55;12.80;84.20
52963;DHT22;38827;53.024;6.596;2023-05-07T01:00:20;12.80;84.20
52963;DHT22;38827;53.024;6.596;2023-05-07T01:02:46;12.80;84.20
52963;DHT22;38827;53.024;6.596;2023-05-07T01:05:14;12.80;84.20
52963;DHT22;38827;53.024;6.596;2023-05-07T01:07:41;12.70;84.30
52963;DHT22;38827;53.024;6.596;2023-05-07T01:10:11;12.70;84.40
52963;DHT22;38827;53.024;6.596;2023-05-07T01:12:38;12.70;84.40
52963;DHT22;38827;53.024;6.596;2023-05-07T01:15:05;12.70;84.40
52963;DHT22;38827;53.024;6.596;2023-05-07T01:17:42;12.70;84.50
52963;DHT22;38827;53.024;6.596;2023-05-07T01:20:08;12.60;84.60
52963;DHT22;38827;53.024;6.596;2023-05-07T01:22:37;12.60;84.60
52963;DHT22;38827;53.024;6.596;2023-05-07T01:25:03;12.60;84.60
52963;DHT22;38827;53.024;6.596;2023-05-07T01:27:29;12.50;84.60
52963;DHT22;38827;53.024;6.596;2023-05-07T01:29:55;12.50;84.60
52963;DHT22;38827;53.024;6.596;2023-05-07T01:32:36;12.50;84.50
52963;DHT22;38827;53.024;6.596;2023-05-07T01:35:03;12.50;84.50
52963;DHT22;38827;53.024;6.596;2023-05-07T01:37:30;12.40;84.50
52963;DHT22;38827;53.024;6.596;2023-05-07T01:39:56;12.40;84.40
52963;DHT22;38827;53.024;6.596;2023-05-07T01:42:22;12.30;84.40
52963;DHT22;38827;53.024;6.596;2023-05-07T01:44:48;12.30;84.50
52963;DHT22;38827;53.024;6.596;2023-05-07T01:47:14;12.30;84.60
52963;DHT22;38827;53.024;6.596;2023-05-07T01:49:41;12.20;84.70
52963;DHT22;38827;53.024;6.596;2023-05-07T01:52:11;12.20;84.70
52963;DHT22;38827;53.024;6.596;2023-05-07T01:54:37;12.20;84.70
52963;DHT22;38827;53.024;6.596;2023-05-07T01:57:03;12.10;84.70
52963;DHT22;38827;53.024;6.596;2023-05-07T01:59:29;12.10;84.80
52963;DHT22;38827;53.024;6.596;2023-05-07T02:01:54;12.10;84.80
52963;DHT22;38827;53.024;6.596;2023-05-07T02:04:20;12.10;84.90
52963;DHT22;38827;53.024;6.596;2023-05-07T02:06:46;12.00;84.90
52963;DHT22;38827;53.024;6.596;2023-05-07T02:09:11;12.00;84.80
52963;DHT22;38827;53.024;6.596;2023-05-07T02:11:37;12.00;84.80
52963;DHT22;38827;53.024;6.596;2023-05-07T02:14:03;12.00;84.80
52963;DHT22;38827;53.024;6.596;2023-05-07T02:16:28;11.90;84.80
52963;DHT22;38827;53.024;6.596;2023-05-07T02:18:54;11.90;84.90
52963;DHT22;38827;53.024;6.596;2023-05-07T02:21:20;11.90;84.90
52963;DHT22;38827;53.024;6.596;2023-05-07T02:23:45;11.90;84.90
52963;DHT22;38827;53.024;6.596;2023-05-07T02:26:11;11.90;84.90
52963;DHT22;38827;53.024;6.596;2023-05-07T02:28:37;11.90;85.00
52963;DHT22;38827;53.024;6.596;2023-05-07T02:31:06;11.90;84.90
52963;DHT22;38827;53.024;6.596;2023-05-07T02:33:32;11.90;85.00
52963;DHT22;38827;53.024;6.596;2023-05-07T02:36:06;11.90;85.00
52963;DHT22;38827;53.024;6.596;2023-05-07T02:38:32;11.90;84.90
52963;DHT22;38827;53.024;6.596;2023-05-07T02:40:57;11.90;84.70
52963;DHT22;38827;53.024;6.596;2023-05-07T02:43:23;11.90;84.60
52963;DHT22;38827;53.024;6.596;2023-05-07T02:45:49;11.80;84.60
52963;DHT22;38827;53.024;6.596;2023-05-07T02:48:14;11.80;84.50
52963;DHT22;38827;53.024;6.596;2023-05-07T02:50:40;11.80;84.30
52963;DHT22;38827;53.024;6.596;2023-05-07T02:53:06;11.70;84.50
52963;DHT22;38827;53.024;6.596;2023-05-07T02:55:31;11.70;84.40
52963;DHT22;38827;53.024;6.596;2023-05-07T02:57:57;11.70;84.40
52963;DHT22;38827;53.024;6.596;2023-05-07T03:00:23;11.60;84.40
52963;DHT22;38827;53.024;6.596;2023-05-07T03:02:49;11.60;84.40
52963;DHT22;38827;53.024;6.596;2023-05-07T03:05:15;11.60;84.50
52963;DHT22;38827;53.024;6.596;2023-05-07T03:07:41;11.60;84.60
52963;DHT22;38827;53.024;6.596;2023-05-07T03:10:10;11.50;84.50
52963;DHT22;38827;53.024;6.596;2023-05-07T03:12:36;11.50;84.40
52963;DHT22;38827;53.024;6.596;2023-05-07T03:15:02;11.50;84.50
52963;DHT22;38827;53.024;6.596;2023-05-07T03:17:28;11.40;84.60
52963;DHT22;38827;53.024;6.596;2023-05-07T03:19:53;11.40;84.60
52963;DHT22;38827;53.024;6.596;2023-05-07T03:22:19;11.40;84.60
52963;DHT22;38827;53.024;6.596;2023-05-07T03:24:45;11.40;84.70
52963;DHT22;38827;53.024;6.596;2023-05-07T03:27:11;11.40;84.60
52963;DHT22;38827;53.024;6.596;2023-05-07T03:29:37;11.40;84.70
52963;DHT22;38827;53.024;6.596;2023-05-07T03:32:02;11.40;84.90
52963;DHT22;38827;53.024;6.596;2023-05-07T03:34:28;11.40;84.90
52963;DHT22;38827;53.024;6.596;2023-05-07T03:36:53;11.40;84.80
52963;DHT22;38827;53.024;6.596;2023-05-07T03:39:19;11.50;84.90
52963;DHT22;38827;53.024;6.596;2023-05-07T03:41:45;11.50;84.90
52963;DHT22;38827;53.024;6.596;2023-05-07T03:44:10;11.50;84.90
52963;DHT22;38827;53.024;6.596;2023-05-07T03:46:36;11.50;84.90
52963;DHT22;38827;53.024;6.596;2023-05-07T03:49:02;11.50;84.90
52963;DHT22;38827;53.024;6.596;2023-05-07T03:51:27;11.50;85.00
52963;DHT22;38827;53.024;6.596;2023-05-07T03:53:53;11.50;84.90
52963;DHT22;38827;53.024;6.596;2023-05-07T03:56:19;11.40;84.90
52963;DHT22;38827;53.024;6.596;2023-05-07T03:58:45;11.40;84.80
52963;DHT22;38827;53.024;6.596;2023-05-07T04:01:11;11.40;84.90
52963;DHT22;38827;53.024;6.596;2023-05-07T04:03:37;11.40;84.90
52963;DHT22;38827;53.024;6.596;2023-05-07T04:06:03;11.40;84.80
52963;DHT22;38827;53.024;6.596;2023-05-07T04:08:29;11.40;84.80
52963;DHT22;38827;53.024;6.596;2023-05-07T04:10:55;11.40;84.70
52963;DHT22;38827;53.024;6.596;2023-05-07T04:13:21;11.40;84.70
52963;DHT22;38827;53.024;6.596;2023-05-07T04:15:46;11.40;84.90
52963;DHT22;38827;53.024;6.596;2023-05-07T04:18:14;11.40;84.80
52963;DHT22;38827;53.024;6.596;2023-05-07T04:20:41;11.40;84.70
52963;DHT22;38827;53.024;6.596;2023-05-07T04:23:07;11.40;84.80
52963;DHT22;38827;53.024;6.596;2023-05-07T04:25:33;11.40;84.70
52963;DHT22;38827;53.024;6.596;2023-05-07T04:27:58;11.30;84.60
52963;DHT22;38827;53.024;6.596;2023-05-07T04:30:24;11.30;84.60
52963;DHT22;38827;53.024;6.596;2023-05-07T04:32:50;11.30;84.60
52963;DHT22;38827;53.024;6.596;2023-05-07T04:35:16;11.30;84.40
52963;DHT22;38827;53.024;6.596;2023-05-07T04:37:42;11.30;84.40
52963;DHT22;38827;53.024;6.596;2023-05-07T04:40:08;11.30;84.40
52963;DHT22;38827;53.024;6.596;2023-05-07T04:42:35;11.30;84.50
52963;DHT22;38827;53.024;6.596;2023-05-07T04:45:01;11.30;84.60
52963;DHT22;38827;53.024;6.596;2023-05-07T04:47:27;11.30;84.70
52963;DHT22;38827;53.024;6.596;2023-05-07T04:49:53;11.30;84.50
52963;DHT22;38827;53.024;6.596;2023-05-07T04:52:18;11.30;84.60
52963;DHT22;38827;53.024;6.596;2023-05-07T04:54:44;11.30;84.60
52963;DHT22;38827;53.024;6.596;2023-05-07T04:57:10;11.30;84.50
52963;DHT22;38827;53.024;6.596;2023-05-07T04:59:35;11.30;84.50
52963;DHT22;38827;53.024;6.596;2023-05-07T05:02:01;11.30;84.50
52963;DHT22;38827;53.024;6.596;2023-05-07T05:04:27;11.30;84.50
52963;DHT22;38827;53.024;6.596;2023-05-07T05:06:52;11.30;84.40
52963;DHT22;38827;53.024;6.596;2023-05-07T05:09:18;11.30;84.40
52963;DHT22;38827;53.024;6.596;2023-05-07T05:11:44;11.30;84.50
52963;DHT22;38827;53.024;6.596;2023-05-07T05:14:10;11.30;84.50
52963;DHT22;38827;53.024;6.596;2023-05-07T05:16:35;11.30;84.40
52963;DHT22;38827;53.024;6.596;2023-05-07T05:19:02;11.30;84.30
52963;DHT22;38827;53.024;6.596;2023-05-07T05:21:28;11.30;84.20
52963;DHT22;38827;53.024;6.596;2023-05-07T05:23:53;11.40;84.20
52963;DHT22;38827;53.024;6.596;2023-05-07T05:26:19;11.40;84.10
52963;DHT22;38827;53.024;6.596;2023-05-07T05:28:46;11.40;84.00
52963;DHT22;38827;53.024;6.596;2023-05-07T05:31:12;11.40;83.70
52963;DHT22;38827;53.024;6.596;2023-05-07T05:33:37;11.40;84.00
52963;DHT22;38827;53.024;6.596;2023-05-07T05:36:04;11.40;83.90
52963;DHT22;38827;53.024;6.596;2023-05-07T05:38:29;11.40;83.90
52963;DHT22;38827;53.024;6.596;2023-05-07T05:40:55;11.40;83.70
52963;DHT22;38827;53.024;6.596;2023-05-07T05:43:21;11.50;83.60
52963;DHT22;38827;53.024;6.596;2023-05-07T05:45:46;11.50;83.50
52963;DHT22;38827;53.024;6.596;2023-05-07T05:48:12;11.50;83.60
52963;DHT22;38827;53.024;6.596;2023-05-07T05:50:37;11.50;83.60
52963;DHT22;38827;53.024;6.596;2023-05-07T05:53:03;11.60;83.50
52963;DHT22;38827;53.024;6.596;2023-05-07T05:55:29;11.60;83.40
52963;DHT22;38827;53.024;6.596;2023-05-07T05:57:56;11.60;83.40
52963;DHT22;38827;53.024;6.596;2023-05-07T06:00:22;11.60;83.00
52963;DHT22;38827;53.024;6.596;2023-05-07T06:02:48;11.60;82.90
52963;DHT22;38827;53.024;6.596;2023-05-07T06:05:14;11.70;82.90
52963;DHT22;38827;53.024;6.596;2023-05-07T06:07:40;11.70;82.80
52963;DHT22;38827;53.024;6.596;2023-05-07T06:10:06;11.70;82.50
52963;DHT22;38827;53.024;6.596;2023-05-07T06:12:32;11.70;82.50
52963;DHT22;38827;53.024;6.596;2023-05-07T06:14:58;11.80;82.40
52963;DHT22;38827;53.024;6.596;2023-05-07T06:17:23;11.90;82.40
52963;DHT22;38827;53.024;6.596;2023-05-07T06:19:49;11.80;82.20
52963;DHT22;38827;53.024;6.596;2023-05-07T06:22:15;11.90;81.90
52963;DHT22;38827;53.024;6.596;2023-05-07T06:24:40;11.80;82.00
52963;DHT22;38827;53.024;6.596;2023-05-07T06:27:06;11.90;82.00
52963;DHT22;38827;53.024;6.596;2023-05-07T06:29:32;11.90;81.90
52963;DHT22;38827;53.024;6.596;2023-05-07T06:32:09;11.90;81.70
52963;DHT22;38827;53.024;6.596;2023-05-07T06:34:35;11.90;81.60
52963;DHT22;38827;53.024;6.596;2023-05-07T06:37:01;11.90;81.70
52963;DHT22;38827;53.024;6.596;2023-05-07T06:39:26;11.90;81.70
52963;DHT22;38827;53.024;6.596;2023-05-07T06:41:52;11.90;81.50
52963;DHT22;38827;53.024;6.596;2023-05-07T06:44:18;11.90;81.40
52963;DHT22;38827;53.024;6.596;2023-05-07T06:46:44;12.00;81.40
52963;DHT22;38827;53.024;6.596;2023-05-07T06:49:12;12.00;81.30
52963;DHT22;38827;53.024;6.596;2023-05-07T06:51:37;12.00;81.20
52963;DHT22;38827;53.024;6.596;2023-05-07T06:54:03;12.00;81.30
52963;DHT22;38827;53.024;6.596;2023-05-07T06:56:30;12.10;81.30
52963;DHT22;38827;53.024;6.596;2023-05-07T06:58:56;12.10;81.10
52963;DHT22;38827;53.024;6.596;2023-05-07T07:01:21;12.10;80.80
52963;DHT22;38827;53.024;6.596;2023-05-07T07:03:47;12.10;80.70
52963;DHT22;38827;53.024;6.596;2023-05-07T07:06:13;12.20;80.70
52963;DHT22;38827;53.024;6.596;2023-05-07T07:08:38;12.20;80.60
52963;DHT22;38827;53.024;6.596;2023-05-07T07:11:05;12.30;80.60
52963;DHT22;38827;53.024;6.596;2023-05-07T07:13:30;12.30;80.40
52963;DHT22;38827;53.024;6.596;2023-05-07T07:15:56;12.40;80.20
52963;DHT22;38827;53.024;6.596;2023-05-07T07:18:22;12.50;80.10
52963;DHT22;38827;53.024;6.596;2023-05-07T07:20:48;12.50;79.90
52963;DHT22;38827;53.024;6.596;2023-05-07T07:23:14;12.50;79.60
52963;DHT22;38827;53.024;6.596;2023-05-07T07:25:39;12.60;79.50
52963;DHT22;38827;53.024;6.596;2023-05-07T07:28:05;12.60;79.70
52963;DHT22;38827;53.024;6.596;2023-05-07T07:30:31;12.60;79.50
52963;DHT22;38827;53.024;6.596;2023-05-07T07:32:57;12.70;79.60
52963;DHT22;38827;53.024;6.596;2023-05-07T07:35:28;12.70;79.40
52963;DHT22;38827;53.024;6.596;2023-05-07T07:37:54;12.80;79.10
52963;DHT22;38827;53.024;6.596;2023-05-07T07:40:19;12.80;78.90
52963;DHT22;38827;53.024;6.596;2023-05-07T07:42:45;12.90;78.90
52963;DHT22;38827;53.024;6.596;2023-05-07T07:45:11;12.90;78.70
52963;DHT22;38827;53.024;6.596;2023-05-07T07:47:37;13.00;78.40
52963;DHT22;38827;53.024;6.596;2023-05-07T07:50:03;13.00;77.90
52963;DHT22;38827;53.024;6.596;2023-05-07T07:52:29;13.10;78.00
52963;DHT22;38827;53.024;6.596;2023-05-07T07:54:54;13.20;77.90
52963;DHT22;38827;53.024;6.596;2023-05-07T07:57:20;13.30;77.40
52963;DHT22;38827;53.024;6.596;2023-05-07T07:59:46;13.30;77.20
52963;DHT22;38827;53.024;6.596;2023-05-07T08:02:11;13.40;77.20
52963;DHT22;38827;53.024;6.596;2023-05-07T08:04:37;13.50;77.10
52963;DHT22;38827;53.024;6.596;2023-05-07T08:07:03;13.50;76.70
52963;DHT22;38827;53.024;6.596;2023-05-07T08:09:29;13.50;76.30
52963;DHT22;38827;53.024;6.596;2023-05-07T08:11:55;13.50;76.10
52963;DHT22;38827;53.024;6.596;2023-05-07T08:14:20;13.50;76.00
52963;DHT22;38827;53.024;6.596;2023-05-07T08:16:46;13.50;75.80
52963;DHT22;38827;53.024;6.596;2023-05-07T08:19:11;13.50;75.80
52963;DHT22;38827;53.024;6.596;2023-05-07T08:21:40;13.40;75.80
52963;DHT22;38827;53.024;6.596;2023-05-07T08:24:06;13.40;75.80
52963;DHT22;38827;53.024;6.596;2023-05-07T08:26:32;13.40;75.90
52963;DHT22;38827;53.024;6.596;2023-05-07T08:28:58;13.40;75.80
52963;DHT22;38827;53.024;6.596;2023-05-07T08:31:23;13.50;75.70
52963;DHT22;38827;53.024;6.596;2023-05-07T08:33:50;13.60;75.60
52963;DHT22;38827;53.024;6.596;2023-05-07T08:36:15;13.70;75.40
52963;DHT22;38827;53.024;6.596;2023-05-07T08:38:41;13.80;75.10
52963;DHT22;38827;53.024;6.596;2023-05-07T08:41:10;13.90;74.90
52963;DHT22;38827;53.024;6.596;2023-05-07T08:46:04;14.60;73.50
52963;DHT22;38827;53.024;6.596;2023-05-07T08:48:31;14.30;74.50
52963;DHT22;38827;53.024;6.596;2023-05-07T08:50:58;14.40;74.00
52963;DHT22;38827;53.024;6.596;2023-05-07T08:53:24;14.50;72.80
52963;DHT22;38827;53.024;6.596;2023-05-07T08:55:50;14.50;73.30
52963;DHT22;38827;53.024;6.596;2023-05-07T08:58:16;14.50;73.00
52963;DHT22;38827;53.024;6.596;2023-05-07T09:00:42;14.40;73.10
52963;DHT22;38827;53.024;6.596;2023-05-07T09:03:07;14.40;72.90
52963;DHT22;38827;53.024;6.596;2023-05-07T09:05:33;14.40;72.80
52963;DHT22;38827;53.024;6.596;2023-05-07T09:07:59;14.50;72.80
52963;DHT22;38827;53.024;6.596;2023-05-07T09:10:29;14.60;72.50
52963;DHT22;38827;53.024;6.596;2023-05-07T09:12:55;14.70;72.30
52963;DHT22;38827;53.024;6.596;2023-05-07T09:15:20;14.90;71.90
52963;DHT22;38827;53.024;6.596;2023-05-07T09:17:46;15.30;70.90
52963;DHT22;38827;53.024;6.596;2023-05-07T09:20:12;15.50;69.90
52963;DHT22;38827;53.024;6.596;2023-05-07T09:22:38;15.70;69.20
52963;DHT22;38827;53.024;6.596;2023-05-07T09:25:05;16.00;68.80
52963;DHT22;38827;53.024;6.596;2023-05-07T09:27:31;16.50;67.30
52963;DHT22;38827;53.024;6.596;2023-05-07T09:29:57;16.90;65.80
52963;DHT22;38827;53.024;6.596;2023-05-07T09:32:23;17.10;65.30
52963;DHT22;38827;53.024;6.596;2023-05-07T09:34:50;17.40;64.70
52963;DHT22;38827;53.024;6.596;2023-05-07T09:37:15;17.80;63.90
52963;DHT22;38827;53.024;6.596;2023-05-07T09:39:46;17.90;63.10
52963;DHT22;38827;53.024;6.596;2023-05-07T09:42:12;17.90;62.80
52963;DHT22;38827;53.024;6.596;2023-05-07T09:44:40;18.00;63.10
52963;DHT22;38827;53.024;6.596;2023-05-07T09:47:07;18.20;62.60
52963;DHT22;38827;53.024;6.596;2023-05-07T09:49:37;18.40;62.00
52963;DHT22;38827;53.024;6.596;2023-05-07T09:52:05;18.50;61.60
52963;DHT22;38827;53.024;6.596;2023-05-07T09:54:33;18.40;61.50
52963;DHT22;38827;53.024;6.596;2023-05-07T09:57:00;18.30;61.30
52963;DHT22;38827;53.024;6.596;2023-05-07T09:59:28;18.10;61.70
52963;DHT22;38827;53.024;6.596;2023-05-07T10:01:57;18.00;61.80
52963;DHT22;38827;53.024;6.596;2023-05-07T10:04:28;17.80;61.70
52963;DHT22;38827;53.024;6.596;2023-05-07T10:06:54;17.70;62.30
52963;DHT22;38827;53.024;6.596;2023-05-07T10:09:21;17.50;62.80
52963;DHT22;38827;53.024;6.596;2023-05-07T10:11:51;17.40;63.10
52963;DHT22;38827;53.024;6.596;2023-05-07T10:14:17;17.40;63.10
52963;DHT22;38827;53.024;6.596;2023-05-07T10:16:43;17.70;62.90
52963;DHT22;38827;53.024;6.596;2023-05-07T10:19:10;18.10;61.90
52963;DHT22;38827;53.024;6.596;2023-05-07T10:21:37;18.50;61.30
52963;DHT22;38827;53.024;6.596;2023-05-07T10:24:09;19.00;60.70
52963;DHT22;38827;53.024;6.596;2023-05-07T10:26:41;19.60;59.40
52963;DHT22;38827;53.024;6.596;2023-05-07T10:29:33;20.00;57.80
52963;DHT22;38827;53.024;6.596;2023-05-07T10:34:45;20.70;56.30
52963;DHT22;38827;53.024;6.596;2023-05-07T10:37:12;20.90;55.70
52963;DHT22;38827;53.024;6.596;2023-05-07T10:39:39;20.90;55.70
52963;DHT22;38827;53.024;6.596;2023-05-07T10:42:10;20.70;55.60
52963;DHT22;38827;53.024;6.596;2023-05-07T10:44:36;20.80;55.60
52963;DHT22;38827;53.024;6.596;2023-05-07T10:47:07;20.90;55.40
52963;DHT22;38827;53.024;6.596;2023-05-07T10:52:16;20.80;55.20
52963;DHT22;38827;53.024;6.596;2023-05-07T10:54:43;20.80;55.40
52963;DHT22;38827;53.024;6.596;2023-05-07T11:00:01;21.40;54.90
52963;DHT22;38827;53.024;6.596;2023-05-07T11:05:24;22.80;52.70
52963;DHT22;38827;53.024;6.596;2023-05-07T11:07:59;23.40;51.10
52963;DHT22;38827;53.024;6.596;2023-05-07T11:10:54;23.60;49.80
52963;DHT22;38827;53.024;6.596;2023-05-07T11:16:21;23.80;49.50
52963;DHT22;38827;53.024;6.596;2023-05-07T11:18:49;23.80;47.70
52963;DHT22;38827;53.024;6.596;2023-05-07T11:21:32;23.60;49.40
52963;DHT22;38827;53.024;6.596;2023-05-07T11:23:59;23.60;48.50
52963;DHT22;38827;53.024;6.596;2023-05-07T11:26:26;23.80;48.90
52963;DHT22;38827;53.024;6.596;2023-05-07T11:28:52;23.80;48.60
52963;DHT22;38827;53.024;6.596;2023-05-07T11:31:26;24.00;48.20
52963;DHT22;38827;53.024;6.596;2023-05-07T11:34:03;24.20;48.10
52963;DHT22;38827;53.024;6.596;2023-05-07T11:36:32;24.30;47.80
52963;DHT22;38827;53.024;6.596;2023-05-07T11:39:01;24.60;47.50
52963;DHT22;38827;53.024;6.596;2023-05-07T11:41:36;25.20;46.70
52963;DHT22;38827;53.024;6.596;2023-05-07T11:44:02;25.50;46.00
52963;DHT22;38827;53.024;6.596;2023-05-07T11:46:28;25.40;45.80
52963;DHT22;38827;53.024;6.596;2023-05-07T11:48:55;25.20;46.10
52963;DHT22;38827;53.024;6.596;2023-05-07T11:51:22;24.90;46.20
52963;DHT22;38827;53.024;6.596;2023-05-07T11:53:50;24.40;46.50
52963;DHT22;38827;53.024;6.596;2023-05-07T11:56:18;23.90;48.70
52963;DHT22;38827;53.024;6.596;2023-05-07T11:58:45;23.50;48.40
52963;DHT22;38827;53.024;6.596;2023-05-07T12:01:12;23.50;48.30
52963;DHT22;38827;53.024;6.596;2023-05-07T12:03:42;23.60;48.10
52963;DHT22;38827;53.024;6.596;2023-05-07T12:06:09;23.60;48.20
52963;DHT22;38827;53.024;6.596;2023-05-07T12:08:39;23.70;48.80
52963;DHT22;38827;53.024;6.596;2023-05-07T12:11:12;23.70;48.20
52963;DHT22;38827;53.024;6.596;2023-05-07T12:13:38;23.50;48.10
52963;DHT22;38827;53.024;6.596;2023-05-07T12:16:04;23.30;48.80
52963;DHT22;38827;53.024;6.596;2023-05-07T12:18:31;23.40;49.40
52963;DHT22;38827;53.024;6.596;2023-05-07T12:20:57;23.90;47.90
52963;DHT22;38827;53.024;6.596;2023-05-07T12:23:23;24.40;46.90
52963;DHT22;38827;53.024;6.596;2023-05-07T12:25:49;24.80;46.20
52963;DHT22;38827;53.024;6.596;2023-05-07T12:28:15;25.10;45.70
52963;DHT22;38827;53.024;6.596;2023-05-07T12:30:46;25.20;45.40
52963;DHT22;38827;53.024;6.596;2023-05-07T12:33:14;25.30;44.70
52963;DHT22;38827;53.024;6.596;2023-05-07T12:35:42;25.30;45.00
52963;DHT22;38827;53.024;6.596;2023-05-07T12:38:08;25.20;45.00
52963;DHT22;38827;53.024;6.596;2023-05-07T12:40:38;24.90;45.70
52963;DHT22;38827;53.024;6.596;2023-05-07T12:43:04;25.00;45.90
52963;DHT22;38827;53.024;6.596;2023-05-07T12:45:30;24.90;45.30
52963;DHT22;38827;53.024;6.596;2023-05-07T12:50:21;24.00;46.40
52963;DHT22;38827;53.024;6.596;2023-05-07T12:52:47;23.60;47.40
52963;DHT22;38827;53.024;6.596;2023-05-07T12:55:17;23.40;48.10
52963;DHT22;38827;53.024;6.596;2023-05-07T12:57:50;23.50;48.40
52963;DHT22;38827;53.024;6.596;2023-05-07T13:00:17;23.80;47.50
52963;DHT22;38827;53.024;6.596;2023-05-07T13:02:43;23.80;47.70
52963;DHT22;38827;53.024;6.596;2023-05-07T13:05:12;23.60;47.90
52963;DHT22;38827;53.024;6.596;2023-05-07T13:07:38;23.40;48.50
52963;DHT22;38827;53.024;6.596;2023-05-07T13:10:05;23.60;48.70
52963;DHT22;38827;53.024;6.596;2023-05-07T13:12:31;24.30;47.40
52963;DHT22;38827;53.024;6.596;2023-05-07T13:14:56;24.80;46.40
52963;DHT22;38827;53.024;6.596;2023-05-07T13:17:22;25.10;46.00
52963;DHT22;38827;53.024;6.596;2023-05-07T13:19:48;25.10;45.90
52963;DHT22;38827;53.024;6.596;2023-05-07T13:22:13;24.80;45.80
52963;DHT22;38827;53.024;6.596;2023-05-07T13:24:39;24.70;46.40
52963;DHT22;38827;53.024;6.596;2023-05-07T13:27:07;24.70;46.50
52963;DHT22;38827;53.024;6.596;2023-05-07T13:29:34;24.80;46.50
52963;DHT22;38827;53.024;6.596;2023-05-07T13:32:00;24.90;46.20
52963;DHT22;38827;53.024;6.596;2023-05-07T13:34:25;25.10;46.10
52963;DHT22;38827;53.024;6.596;2023-05-07T13:36:51;24.90;46.10
52963;DHT22;38827;53.024;6.596;2023-05-07T13:39:17;24.60;46.30
52963;DHT22;38827;53.024;6.596;2023-05-07T13:41:42;24.40;46.60
52963;DHT22;38827;53.024;6.596;2023-05-07T13:44:08;24.20;47.00
52963;DHT22;38827;53.024;6.596;2023-05-07T13:46:34;24.00;47.50
52963;DHT22;38827;53.024;6.596;2023-05-07T13:48:59;24.20;47.20
52963;DHT22;38827;53.024;6.596;2023-05-07T13:51:25;24.60;46.40
52963;DHT22;38827;53.024;6.596;2023-05-07T13:53:51;25.20;45.50
52963;DHT22;38827;53.024;6.596;2023-05-07T13:56:18;25.80;44.70
52963;DHT22;38827;53.024;6.596;2023-05-07T13:58:43;26.00;43.80
52963;DHT22;38827;53.024;6.596;2023-05-07T14:01:09;26.20;43.60
52963;DHT22;38827;53.024;6.596;2023-05-07T14:03:44;26.30;42.80
52963;DHT22;38827;53.024;6.596;2023-05-07T14:06:12;26.10;43.10
52963;DHT22;38827;53.024;6.596;2023-05-07T14:08:38;25.80;43.10
52963;DHT22;38827;53.024;6.596;2023-05-07T14:11:04;25.50;43.60
52963;DHT22;38827;53.024;6.596;2023-05-07T14:13:30;25.10;44.10
52963;DHT22;38827;53.024;6.596;2023-05-07T14:15:59;24.60;44.90
52963;DHT22;38827;53.024;6.596;2023-05-07T14:18:24;24.10;45.90
52963;DHT22;38827;53.024;6.596;2023-05-07T14:20:50;23.70;46.60
52963;DHT22;38827;53.024;6.596;2023-05-07T14:23:16;23.50;47.40
52963;DHT22;38827;53.024;6.596;2023-05-07T14:25:43;23.30;47.70
52963;DHT22;38827;53.024;6.596;2023-05-07T14:28:09;23.20;48.00
52963;DHT22;38827;53.024;6.596;2023-05-07T14:30:34;23.10;48.10
52963;DHT22;38827;53.024;6.596;2023-05-07T14:33:00;23.10;48.60
52963;DHT22;38827;53.024;6.596;2023-05-07T14:35:26;23.20;48.30
52963;DHT22;38827;53.024;6.596;2023-05-07T14:38:04;23.10;47.80
52963;DHT22;38827;53.024;6.596;2023-05-07T14:40:30;22.90;48.30
52963;DHT22;38827;53.024;6.596;2023-05-07T14:42:55;22.70;48.80
52963;DHT22;38827;53.024;6.596;2023-05-07T14:45:22;22.50;49.30
52963;DHT22;38827;53.024;6.596;2023-05-07T14:47:48;22.30;48.90
52963;DHT22;38827;53.024;6.596;2023-05-07T14:50:14;22.20;49.70
52963;DHT22;38827;53.024;6.596;2023-05-07T14:52:39;22.10;49.50
52963;DHT22;38827;53.024;6.596;2023-05-07T14:55:05;21.90;49.90
52963;DHT22;38827;53.024;6.596;2023-05-07T14:57:31;21.90;50.40
52963;DHT22;38827;53.024;6.596;2023-05-07T15:00:03;21.90;50.30
52963;DHT22;38827;53.024;6.596;2023-05-07T15:02:29;21.90;50.50
52963;DHT22;38827;53.024;6.596;2023-05-07T15:04:55;21.90;50.50
52963;DHT22;38827;53.024;6.596;2023-05-07T15:07:21;21.90;50.60
52963;DHT22;38827;53.024;6.596;2023-05-07T15:09:46;21.80;50.50
52963;DHT22;38827;53.024;6.596;2023-05-07T15:12:13;21.80;50.50
52963;DHT22;38827;53.024;6.596;2023-05-07T15:14:39;21.70;50.70
52963;DHT22;38827;53.024;6.596;2023-05-07T15:17:04;21.60;50.60
52963;DHT22;38827;53.024;6.596;2023-05-07T15:19:30;21.40;51.00
52963;DHT22;38827;53.024;6.596;2023-05-07T15:21:59;21.30;51.60
52963;DHT22;38827;53.024;6.596;2023-05-07T15:24:28;21.30;52.10
52963;DHT22;38827;53.024;6.596;2023-05-07T15:26:54;21.20;52.10
52963;DHT22;38827;53.024;6.596;2023-05-07T15:29:20;21.20;52.40
52963;DHT22;38827;53.024;6.596;2023-05-07T15:31:46;21.10;52.90
52963;DHT22;38827;53.024;6.596;2023-05-07T15:34:12;21.10;53.40
52963;DHT22;38827;53.024;6.596;2023-05-07T15:36:40;21.10;53.40
52963;DHT22;38827;53.024;6.596;2023-05-07T15:39:06;21.10;53.70
52963;DHT22;38827;53.024;6.596;2023-05-07T15:41:32;21.00;53.50
52963;DHT22;38827;53.024;6.596;2023-05-07T15:43:58;20.80;53.70
52963;DHT22;38827;53.024;6.596;2023-05-07T15:46:24;20.80;54.30